Time;durP1;ratioP1;P1;durP2;ratioP2;P2;SDS_P1;SDS_P2;PMS_P1;PMS_P2;Temp;Humidity;BMP_temperature;BMP_pressure;BME280_temperature;BME280_humidity;BME280_pressure;Samples;Min_cycle;Max_cycle;Signal;HPM_P1;HPM_P2
2023/04/03 00:00:23;;;;;;;6.40;3.90;;;21.60;59.80;;;;;;222307;1257;24355;-44
2023/04/03 00:05:48;;;;;;;8.70;3.80;;;21.60;59.80;;;;;;226248;1265;24188;-45
2023/04/03 00:10:52;;;;;;;7.00;4.00;;;21.70;59.60;;;;;;223647;1263;24201;-44
2023/04/03 00:15:56;;;;;;;6.50;3.70;;;22.10;59.00;;;;;;222416;1255;25445;-48
2023/04/03 00:21:01;;;;;;;7.60;3.60;;;22.40;58.10;;;;;;222431;1262;24189;-49
2023/04/03 00:26:05;;;;;;;7.90;3.50;;;22.70;57.50;;;;;;222424;1259;24028;-48
2023/04/03 00:31:10;;;;;;;5.80;3.60;;;22.80;57.20;;;;;;222451;1263;22512;-45
2023/04/03 00:36:16;;;;;;;7.30;3.70;;;22.90;56.90;;;;;;222307;1253;22514;-43
2023/04/03 00:41:21;;;;;;;5.60;3.60;;;23.00;56.40;;;;;;222217;1263;23887;-46
2023/04/03 00:46:25;;;;;;;4.40;3.30;;;23.10;56.30;;;;;;222464;1263;24334;-44
2023/04/03 00:51:29;;;;;;;6.70;3.90;;;23.10;56.00;;;;;;222149;1257;22527;-46
2023/04/03 00:56:36;;;;;;;5.50;3.70;;;23.00;56.00;;;;;;222184;1252;23916;-44
2023/04/03 01:01:40;;;;;;;6.10;3.90;;;23.10;56.00;;;;;;222395;1258;25906;-43
2023/04/03 01:06:44;;;;;;;5.20;3.20;;;23.10;55.80;;;;;;222185;1263;24245;-45
2023/04/03 01:11:48;;;;;;;6.10;3.40;;;23.20;55.80;;;;;;222493;1265;22651;-46
2023/04/03 01:16:54;;;;;;;5.50;2.80;;;23.20;55.80;;;;;;222300;1254;22541;-47
2023/04/03 01:22:13;;;;;;;4.90;3.40;;;23.20;55.20;;;;;;222150;1263;22595;-49
2023/04/03 01:27:17;;;;;;;5.90;3.20;;;23.30;55.70;;;;;;222369;1255;22556;-48
2023/04/03 01:32:21;;;;;;;4.30;3.10;;;23.30;55.00;;;;;;222475;1254;22553;-47
2023/04/03 01:37:25;;;;;;;4.70;2.80;;;23.40;55.10;;;;;;222246;1262;22662;-44
2023/04/03 01:42:30;;;;;;;4.40;2.90;;;23.40;55.00;;;;;;222614;1268;22512;-49
2023/04/03 01:47:34;;;;;;;2.90;2.60;;;23.40;55.00;;;;;;222297;1260;25412;-45
2023/04/03 01:52:38;;;;;;;3.80;2.90;;;23.40;55.00;;;;;;229990;1266;22383;-47
2023/04/03 01:57:42;;;;;;;3.90;2.70;;;23.50;54.60;;;;;;226968;1267;25220;-49
2023/04/03 02:02:46;;;;;;;4.00;2.80;;;23.70;54.00;;;;;;230013;1265;22260;-47
2023/04/03 02:07:50;;;;;;;3.40;2.50;;;23.80;53.60;;;;;;223463;1260;24338;-45
2023/04/03 02:12:55;;;;;;;4.20;2.90;;;23.80;53.90;;;;;;222571;1266;24303;-50
2023/04/03 02:18:01;;;;;;;4.00;2.70;;;23.70;53.80;;;;;;222627;1260;22673;-53
2023/04/03 02:23:11;;;;;;;5.10;3.00;;;23.60;54.20;;;;;;222538;1268;24606;-47
2023/04/03 02:28:15;;;;;;;6.00;2.90;;;23.60;54.20;;;;;;222308;1264;24354;-47
2023/04/03 02:33:20;;;;;;;4.20;2.70;;;23.60;54.10;;;;;;222335;1260;25353;-50
2023/04/03 02:38:26;;;;;;;3.70;2.60;;;23.50;54.40;;;;;;222475;1263;25483;-48
2023/04/03 02:43:30;;;;;;;3.50;2.50;;;23.30;54.50;;;;;;222475;1266;25277;-49
2023/04/03 02:48:35;;;;;;;3.30;2.70;;;23.20;54.70;;;;;;222316;1261;22570;-46
2023/04/03 02:53:39;;;;;;;3.80;2.70;;;23.10;54.90;;;;;;222307;1264;24333;-49
2023/04/03 02:58:48;;;;;;;3.20;2.50;;;23.00;55.10;;;;;;222368;1262;24052;-52
2023/04/03 03:03:52;;;;;;;2.70;2.50;;;22.90;55.80;;;;;;222423;1261;24317;-47
2023/04/03 03:08:57;;;;;;;4.40;2.70;;;22.80;55.60;;;;;;222477;1256;25404;-47
2023/04/03 03:14:01;;;;;;;4.20;2.90;;;22.70;55.90;;;;;;222383;1261;22517;-51
2023/04/03 03:19:06;;;;;;;4.20;2.30;;;22.60;55.90;;;;;;222487;1255;25459;-46
2023/04/03 03:24:11;;;;;;;3.60;2.40;;;22.50;56.70;;;;;;222533;1256;22574;-47
2023/04/03 03:29:15;;;;;;;4.20;2.30;;;22.40;56.80;;;;;;222170;1256;24324;-46
2023/04/03 03:34:20;;;;;;;3.10;2.30;;;22.40;56.50;;;;;;222293;1262;22523;-48
2023/04/03 03:39:25;;;;;;;4.40;2.40;;;22.30;56.80;;;;;;222508;1260;22622;-46
2023/04/03 03:44:29;;;;;;;2.70;2.10;;;22.20;57.30;;;;;;222085;1263;25306;-51
2023/04/03 03:49:34;;;;;;;3.80;2.60;;;22.20;56.80;;;;;;222439;1264;22630;-49
2023/04/03 03:54:38;;;;;;;3.50;2.10;;;22.10;57.10;;;;;;222480;1254;25376;-48
2023/04/03 03:59:44;;;;;;;5.70;2.70;;;22.10;56.80;;;;;;222335;1264;25361;-45
2023/04/03 04:04:48;;;;;;;5.80;2.30;;;22.00;57.10;;;;;;222455;1262;25239;-49
2023/04/03 04:09:54;;;;;;;2.30;2.00;;;22.00;57.00;;;;;;222384;1267;25319;-47
2023/04/03 04:14:58;;;;;;;58.30;20.10;;;21.90;56.90;;;;;;222549;1263;22623;-48
2023/04/03 04:20:05;;;;;;;2.60;2.00;;;21.90;57.30;;;;;;222620;1254;22515;-46
2023/04/03 04:25:09;;;;;;;3.80;2.10;;;21.90;56.90;;;;;;222285;1257;22514;-44
2023/04/03 04:30:14;;;;;;;6.10;2.60;;;22.40;56.20;;;;;;222469;1262;26602;-45
2023/04/03 04:35:20;;;;;;;3.30;2.40;;;22.70;54.90;;;;;;222355;1254;22507;-47
2023/04/03 04:40:25;;;;;;;2.70;2.00;;;23.00;54.70;;;;;;222383;1253;25386;-45
2023/04/03 04:45:29;;;;;;;2.60;1.90;;;23.10;54.60;;;;;;222561;1257;25326;-46
2023/04/03 04:50:35;;;;;;;4.50;2.30;;;23.20;54.10;;;;;;222346;1264;24189;-42
2023/04/03 04:55:39;;;;;;;4.30;2.60;;;23.30;53.70;;;;;;222522;1255;24051;-46
2023/04/03 05:00:44;;;;;;;2.90;1.90;;;23.30;53.60;;;;;;222536;1266;22647;-44
2023/04/03 05:05:50;;;;;;;2.50;1.70;;;23.30;53.50;;;;;;222448;1248;24359;-45
2023/04/03 05:10:54;;;;;;;3.00;2.10;;;23.30;53.50;;;;;;222461;1250;22511;-45
2023/04/03 05:16:00;;;;;;;3.00;1.80;;;23.30;53.30;;;;;;222457;1254;22600;-51
2023/04/03 05:21:05;;;;;;;2.90;1.80;;;23.30;53.30;;;;;;222178;1254;22648;-46
2023/04/03 05:26:09;;;;;;;1.80;1.50;;;23.40;53.20;;;;;;222299;1262;25487;-45
2023/04/03 05:31:14;;;;;;;1.60;1.30;;;23.40;53.20;;;;;;222201;1261;22515;-46
2023/04/03 05:36:19;;;;;;;2.70;2.20;;;23.40;53.20;;;;;;222433;1254;23131;-44
2023/04/03 05:41:26;;;;;;;3.90;1.90;;;23.40;53.50;;;;;;222268;1261;25318;-44
2023/04/03 05:46:31;;;;;;;3.20;1.80;;;23.40;53.00;;;;;;222418;1260;22518;-46
2023/04/03 05:51:40;;;;;;;4.50;2.10;;;23.50;53.10;;;;;;222229;1262;22508;-48
2023/04/03 05:56:51;;;;;;;3.80;1.60;;;23.50;52.90;;;;;;222461;1251;22695;-59
2023/04/03 06:01:56;;;;;;;4.70;2.10;;;23.50;53.10;;;;;;222424;1264;24985;-54
2023/04/03 06:07:00;;;;;;;2.30;1.90;;;23.40;53.60;;;;;;222502;1254;22743;-59
2023/04/03 06:12:05;;;;;;;6.00;2.30;;;23.50;53.40;;;;;;222435;1255;25330;-53
2023/04/03 06:17:10;;;;;;;5.90;1.70;;;23.60;53.40;;;;;;222380;1247;22507;-51
2023/04/03 06:22:14;;;;;;;10.70;2.50;;;23.40;54.00;;;;;;222618;1254;23124;-56
2023/04/03 06:27:18;;;;;;;11.00;2.40;;;23.50;54.40;;;;;;222165;1254;164195;-55
2023/04/03 06:32:23;;;;;;;4.10;2.40;;;23.40;54.60;;;;;;222445;1254;22567;-55
2023/04/03 06:37:30;;;;;;;9.10;1.80;;;23.30;54.40;;;;;;222487;1262;24263;-54
2023/04/03 06:42:35;;;;;;;12.20;2.20;;;23.20;55.10;;;;;;222495;1262;22625;-59
2023/04/03 06:47:46;;;;;;;3.70;1.50;;;23.00;55.70;;;;;;222604;1264;22585;-53
2023/04/03 06:52:50;;;;;;;8.70;2.10;;;22.90;55.30;;;;;;222456;1262;22584;-53
2023/04/03 06:57:55;;;;;;;14.90;2.40;;;22.80;55.00;;;;;;222401;1254;22617;-55
2023/04/03 07:02:59;;;;;;;5.70;2.00;;;22.90;55.50;;;;;;222527;1253;24036;-49
2023/04/03 07:08:04;;;;;;;9.40;3.70;;;22.60;51.10;;;;;;222545;1262;24192;-48
2023/04/03 07:13:08;;;;;;;9.00;2.40;;;22.50;53.20;;;;;;223458;1258;22775;-48
2023/04/03 07:18:12;;;;;;;5.30;1.70;;;22.40;53.00;;;;;;222105;1262;22524;-48
2023/04/03 07:23:17;;;;;;;9.50;2.20;;;22.30;53.40;;;;;;222076;1254;24389;-53
2023/04/03 07:28:23;;;;;;;2.90;1.80;;;22.30;53.60;;;;;;222264;1252;23245;-54
2023/04/03 07:33:27;;;;;;;4.30;1.60;;;22.20;53.70;;;;;;222546;1257;22525;-50
2023/04/03 07:38:31;;;;;;;8.30;2.00;;;22.20;54.00;;;;;;222496;1260;22546;-51
2023/04/03 07:43:36;;;;;;;5.50;1.80;;;22.20;53.70;;;;;;222430;1255;22507;-48
2023/04/03 07:48:40;;;;;;;4.60;1.80;;;22.10;53.60;;;;;;222446;1254;22537;-51
2023/04/03 07:53:44;;;;;;;4.40;1.70;;;22.10;53.60;;;;;;222308;1269;25333;-52
2023/04/03 07:58:48;;;;;;;2.20;1.60;;;22.10;53.30;;;;;;222347;1255;22521;-50
2023/04/03 08:03:52;;;;;;;3.50;1.90;;;22.00;53.20;;;;;;222308;1262;22634;-51
2023/04/03 08:08:57;;;;;;;2.70;1.60;;;22.10;52.80;;;;;;222430;1253;24402;-53
2023/04/03 08:14:02;;;;;;;6.60;2.10;;;22.20;52.70;;;;;;222320;1254;22537;-56
2023/04/03 08:19:07;;;;;;;2.10;1.70;;;22.10;52.80;;;;;;222433;1262;22511;-50
2023/04/03 08:24:23;;;;;;;3.30;1.90;;;22.10;52.90;;;;;;222192;1262;24242;-60
2023/04/03 08:29:27;;;;;;;6.40;2.30;;;22.00;53.40;;;;;;222269;1255;22528;-52
2023/04/03 08:34:36;;;;;;;5.10;1.90;;;21.90;54.30;;;;;;222366;1254;22519;-56
2023/04/03 08:39:40;;;;;;;4.30;2.10;;;21.80;54.90;;;;;;222441;1255;24370;-50
2023/04/03 08:44:47;;;;;;;2.70;2.10;;;21.70;55.50;;;;;;222347;1255;24282;-53
2023/04/03 08:50:01;;;;;;;5.00;1.60;;;21.70;55.90;;;;;;222398;1254;22514;-50
2023/04/03 08:55:27;;;;;;;3.20;1.80;;;21.70;56.60;;;;;;222362;1255;24259;-56
2023/04/03 09:00:40;;;;;;;2.60;1.70;;;21.70;56.30;;;;;;222458;1255;25399;-49
2023/04/03 09:06:01;;;;;;;5.00;2.40;;;21.60;56.70;;;;;;222305;1254;22610;-53
2023/04/03 09:11:21;;;;;;;1.90;1.60;;;21.80;56.30;;;;;;222321;1253;24256;-52
2023/04/03 09:16:31;;;;;;;3.10;1.80;;;22.40;55.00;;;;;;222280;1255;25373;-52
2023/04/03 09:21:42;;;;;;;3.50;1.40;;;22.80;54.60;;;;;;222411;1262;22517;-64
2023/04/03 09:26:45;;;;;;;1.90;1.40;;;22.90;53.70;;;;;;222603;1263;24376;-53
2023/04/03 09:31:57;;;;;;;2.20;1.50;;;23.10;53.80;;;;;;222394;1261;22522;-54
2023/04/03 09:37:05;;;;;;;2.50;1.90;;;23.10;53.70;;;;;;222310;1255;24042;-53
2023/04/03 09:42:24;;;;;;;2.00;1.60;;;23.20;53.90;;;;;;222543;1255;22779;-53
2023/04/03 09:47:33;;;;;;;1.90;1.50;;;23.30;53.60;;;;;;222541;1254;25266;-52
2023/04/03 09:52:38;;;;;;;2.10;1.60;;;23.40;53.70;;;;;;222650;1262;22527;-51
2023/04/03 09:57:45;;;;;;;2.20;1.10;;;23.50;53.90;;;;;;222459;1260;25405;-55
2023/04/03 10:02:58;;;;;;;2.20;1.40;;;23.40;54.20;;;;;;222323;1262;22522;-55
2023/04/03 10:08:13;;;;;;;2.60;1.40;;;23.40;53.90;;;;;;222521;1254;25268;-51
2023/04/03 10:13:20;;;;;;;2.00;1.60;;;23.50;54.20;;;;;;222442;1262;24365;-51
2023/04/03 10:18:42;;;;;;;1.90;1.30;;;23.60;54.00;;;;;;222347;1253;23916;-53
2023/04/03 10:24:21;;;;;;;1.60;1.20;;;23.60;53.80;;;;;;222262;1262;25556;-52
2023/04/03 10:29:28;;;;;;;2.00;1.70;;;23.70;53.70;;;;;;222286;1255;22638;-56
2023/04/03 10:34:38;;;;;;;2.10;1.40;;;23.80;53.50;;;;;;222262;1247;24257;-54
2023/04/03 10:39:58;;;;;;;2.10;1.60;;;23.80;53.70;;;;;;222343;1260;22521;-54
2023/04/03 10:45:29;;;;;;;1.70;1.20;;;23.70;54.00;;;;;;222416;1260;25361;-54
2023/04/03 10:50:48;;;;;;;1.50;1.30;;;23.60;53.90;;;;;;222415;1260;24091;-53
2023/04/03 10:56:21;;;;;;;3.00;1.40;;;23.50;53.90;;;;;;222399;1255;26589;-54
2023/04/03 11:01:38;;;;;;;3.30;1.80;;;23.40;54.30;;;;;;222418;1253;22623;-54
2023/04/03 11:07:00;;;;;;;1.30;1.20;;;23.20;54.80;;;;;;222130;1255;22775;-55
2023/04/03 11:12:26;;;;;;;1.20;1.10;;;23.10;54.80;;;;;;222379;1260;22625;-54
2023/04/03 11:17:44;;;;;;;2.50;1.50;;;23.10;55.50;;;;;;222333;1265;23097;-53
2023/04/03 11:22:58;;;;;;;4.80;1.50;;;23.00;55.10;;;;;;222386;1255;22519;-52
2023/04/03 11:28:12;;;;;;;4.50;2.00;;;22.90;55.70;;;;;;222093;1254;25575;-53
2023/04/03 11:33:35;;;;;;;2.30;1.40;;;22.90;55.30;;;;;;222375;1262;23161;-52
2023/04/03 11:38:44;;;;;;;2.30;1.70;;;22.90;55.60;;;;;;222270;1262;22527;-55
2023/04/03 11:44:41;;;;;;;1.50;1.20;;;22.80;55.90;;;;;;222370;1262;23332;-56
2023/04/03 11:50:00;;;;;;;2.90;2.20;;;22.80;55.80;;;;;;222113;1262;23954;-49
2023/04/03 11:55:30;;;;;;;2.40;1.70;;;22.80;55.20;;;;;;222003;1265;22636;-57
2023/04/03 12:00:47;;;;;;;2.10;1.60;;;22.70;55.40;;;;;;221861;1256;22567;-58
2023/04/03 12:06:06;;;;;;;1.90;1.60;;;22.70;55.90;;;;;;222434;1256;24219;-52
2023/04/03 12:11:11;;;;;;;1.60;1.50;;;22.60;55.70;;;;;;222350;1255;25614;-54
2023/04/03 12:16:24;;;;;;;2.00;1.60;;;22.50;55.80;;;;;;222406;1255;24370;-55
2023/04/03 12:21:47;;;;;;;2.40;1.70;;;22.50;55.80;;;;;;222451;1255;22761;-50
2023/04/03 12:26:58;;;;;;;1.90;1.40;;;22.40;55.70;;;;;;222350;1254;22941;-54
2023/04/03 12:32:39;;;;;;;2.00;1.40;;;22.40;55.80;;;;;;222392;1256;22735;-52
2023/04/03 12:38:03;;;;;;;2.20;1.40;;;22.40;55.80;;;;;;222318;1262;22633;-53
2023/04/03 12:43:41;;;;;;;1.90;1.40;;;22.30;55.80;;;;;;222541;1262;25317;-53
2023/04/03 12:48:54;;;;;;;2.00;1.60;;;22.30;55.70;;;;;;222464;1246;24412;-50
2023/04/03 12:54:12;;;;;;;2.20;1.70;;;22.30;55.70;;;;;;222246;1266;22520;-51
2023/04/03 12:59:23;;;;;;;1.90;1.80;;;22.30;55.60;;;;;;222260;1256;25268;-56
2023/04/03 13:04:29;;;;;;;2.40;1.90;;;22.20;55.50;;;;;;222434;1256;22651;-50
2023/04/03 13:09:33;;;;;;;2.40;1.80;;;22.30;55.60;;;;;;222440;1255;24690;-48
2023/04/03 13:14:38;;;;;;;1.70;1.60;;;22.30;55.60;;;;;;222264;1255;24128;-49
2023/04/03 13:19:45;;;;;;;1.90;1.80;;;22.20;55.50;;;;;;222320;1262;25238;-50
2023/04/03 13:24:51;;;;;;;1.70;1.60;;;22.20;55.50;;;;;;222349;1255;22630;-54
2023/04/03 13:29:59;;;;;;;3.50;1.70;;;22.10;55.40;;;;;;222219;1255;25387;-50
2023/04/03 13:35:31;;;;;;;31.60;13.70;;;22.10;55.50;;;;;;222167;1264;24218;-53
2023/04/03 13:40:48;;;;;;;3.90;2.50;;;22.00;55.20;;;;;;222330;1255;22526;-56
2023/04/03 13:46:12;;;;;;;1.90;1.70;;;22.10;55.70;;;;;;222381;1267;22508;-58
2023/04/03 13:51:29;;;;;;;1.90;1.80;;;22.00;55.00;;;;;;221889;1265;22613;-56
2023/04/03 13:56:37;;;;;;;2.10;1.90;;;22.00;55.10;;;;;;222176;1258;25203;-60
2023/04/03 14:01:55;;;;;;;2.70;1.80;;;21.90;55.30;;;;;;222201;1263;24076;-55
2023/04/03 14:06:59;;;;;;;3.00;2.00;;;21.90;55.00;;;;;;222181;1263;22505;-54
2023/04/03 14:12:13;;;;;;;2.70;1.90;;;21.90;55.40;;;;;;222153;1244;22524;-52
2023/04/03 14:17:35;;;;;;;10.80;3.50;;;21.90;54.80;;;;;;222507;1261;25269;-53
2023/04/03 14:22:40;;;;;;;5.30;2.60;;;21.90;54.50;;;;;;222379;1264;26514;-54
2023/04/03 14:27:49;;;;;;;3.20;2.00;;;21.80;54.40;;;;;;222264;1261;22648;-51
2023/04/03 14:32:54;;;;;;;1.80;1.70;;;21.90;53.30;;;;;;222362;1254;24258;-55
2023/04/03 14:37:58;;;;;;;6.10;2.50;;;21.90;53.60;;;;;;222110;1263;22626;-50
2023/04/03 14:43:03;;;;;;;4.30;2.50;;;21.90;54.00;;;;;;222177;1265;22632;-51
2023/04/03 14:48:16;;;;;;;2.40;1.60;;;21.90;53.50;;;;;;221887;1261;22504;-50
2023/04/03 14:53:24;;;;;;;6.50;2.70;;;21.80;53.50;;;;;;222136;1262;22776;-58
2023/04/03 14:58:43;;;;;;;2.60;1.70;;;21.70;53.40;;;;;;222210;1259;22782;-57
2023/04/03 15:03:53;;;;;;;7.20;2.80;;;21.70;53.90;;;;;;222066;1264;24233;-58
2023/04/03 15:08:58;;;;;;;3.50;2.30;;;21.80;55.00;;;;;;226082;1263;24233;-56
2023/04/03 15:14:02;;;;;;;2.80;2.00;;;21.90;55.30;;;;;;224594;1259;22514;-57
2023/04/03 15:19:06;;;;;;;7.10;2.60;;;21.90;56.40;;;;;;222309;1262;22726;-57
2023/04/03 15:24:10;;;;;;;4.40;1.90;;;21.90;56.80;;;;;;222480;1253;22517;-55
2023/04/03 15:29:14;;;;;;;7.00;2.20;;;21.90;57.30;;;;;;222247;1255;23540;-50
2023/04/03 15:34:18;;;;;;;4.60;2.30;;;21.70;57.00;;;;;;222274;1261;22644;-55
2023/04/03 15:39:25;;;;;;;8.40;2.20;;;21.70;57.10;;;;;;222333;1259;25342;-57
2023/04/03 15:44:29;;;;;;;4.20;2.10;;;21.80;56.20;;;;;;222449;1254;22777;-54
2023/04/03 15:49:34;;;;;;;8.60;2.50;;;21.80;56.30;;;;;;222576;1263;22527;-52
2023/04/03 15:54:38;;;;;;;3.50;2.20;;;21.70;55.90;;;;;;222402;1254;22518;-58
2023/04/03 15:59:43;;;;;;;3.80;2.30;;;21.60;56.30;;;;;;222474;1254;24330;-59
2023/04/03 16:04:47;;;;;;;4.70;1.90;;;21.60;56.00;;;;;;222342;1262;22638;-56
2023/04/03 16:09:52;;;;;;;6.90;2.40;;;21.50;55.70;;;;;;222132;1256;23222;-53
2023/04/03 16:14:56;;;;;;;7.80;2.30;;;21.50;55.70;;;;;;222328;1261;24668;-55
2023/04/03 16:20:02;;;;;;;2.70;1.70;;;21.60;55.60;;;;;;222321;1261;22738;-55
2023/04/03 16:25:09;;;;;;;3.10;1.80;;;22.00;54.10;;;;;;222312;1263;22526;-61
2023/04/03 16:30:13;;;;;;;5.50;3.00;;;22.40;53.60;;;;;;222396;1263;22658;-59
2023/04/03 16:35:19;;;;;;;3.80;1.80;;;22.60;52.90;;;;;;222377;1246;22724;-61
2023/04/03 16:40:24;;;;;;;2.20;2.00;;;22.70;52.40;;;;;;222348;1263;23142;-54
2023/04/03 16:45:31;;;;;;;3.80;2.60;;;22.80;52.00;;;;;;222031;1262;24186;-56
2023/04/03 16:50:36;;;;;;;2.70;1.80;;;23.00;51.80;;;;;;222218;1262;25462;-53
2023/04/03 16:55:43;;;;;;;6.20;1.60;;;23.10;51.50;;;;;;222331;1264;25294;-48
2023/04/03 17:00:48;;;;;;;3.70;2.10;;;23.10;51.20;;;;;;222346;1265;22504;-53
2023/04/03 17:05:52;;;;;;;5.80;2.00;;;23.20;52.00;;;;;;222311;1254;24164;-53
2023/04/03 17:10:59;;;;;;;4.80;2.20;;;23.30;51.10;;;;;;222382;1263;24211;-51
2023/04/03 17:16:08;;;;;;;5.00;2.10;;;23.40;50.50;;;;;;222110;1253;24196;-55
2023/04/03 17:21:20;;;;;;;2.80;1.80;;;23.40;50.20;;;;;;222469;1256;22512;-51
2023/04/03 17:26:30;;;;;;;2.70;1.80;;;23.50;50.10;;;;;;222389;1261;24194;-56
2023/04/03 17:31:41;;;;;;;4.80;2.40;;;23.60;49.90;;;;;;222428;1256;22504;-57
2023/04/03 17:36:54;;;;;;;3.60;1.70;;;23.60;49.60;;;;;;222557;1259;24231;-52
2023/04/03 17:42:01;;;;;;;4.30;2.20;;;23.70;50.00;;;;;;222256;1262;22581;-52
2023/04/03 17:47:09;;;;;;;3.10;1.80;;;23.70;49.50;;;;;;222460;1262;22509;-57
2023/04/03 17:52:18;;;;;;;4.00;1.90;;;23.70;49.30;;;;;;222346;1259;22590;-55
2023/04/03 17:57:30;;;;;;;2.90;1.80;;;23.60;49.50;;;;;;222418;1262;22639;-56
2023/04/03 18:02:35;;;;;;;2.70;1.70;;;23.40;49.80;;;;;;222172;1262;22564;-52
2023/04/03 18:07:42;;;;;;;5.20;2.00;;;23.30;50.10;;;;;;222427;1262;25317;-53
2023/04/03 18:12:48;;;;;;;4.50;1.90;;;23.10;50.80;;;;;;222375;1258;24295;-54
2023/04/03 18:17:56;;;;;;;8.30;2.00;;;23.00;51.20;;;;;;222135;1265;25502;-53
2023/04/03 18:23:04;;;;;;;6.70;2.10;;;22.90;51.70;;;;;;222441;1253;24309;-53
2023/04/03 18:28:09;;;;;;;11.60;2.60;;;23.00;51.00;;;;;;222452;1254;129474;-50
2023/04/03 18:33:16;;;;;;;13.10;3.10;;;23.00;51.80;;;;;;222350;1262;25204;-46
2023/04/03 18:38:21;;;;;;;2.80;1.90;;;22.80;51.70;;;;;;222516;1262;25237;-45
2023/04/03 18:43:27;;;;;;;7.30;2.10;;;22.70;51.90;;;;;;222428;1262;24729;-47
2023/04/03 18:48:39;;;;;;;4.80;2.20;;;22.50;52.20;;;;;;222435;1253;22569;-44
2023/04/03 18:53:48;;;;;;;2.20;1.80;;;22.50;53.00;;;;;;222380;1258;25278;-49
2023/04/03 18:58:56;;;;;;;5.10;3.00;;;22.40;53.10;;;;;;222460;1255;24368;-48
2023/04/03 19:04:02;;;;;;;5.50;3.10;;;22.30;52.80;;;;;;222419;1260;24244;-48
2023/04/03 19:09:08;;;;;;;4.80;2.90;;;22.30;53.10;;;;;;222475;1260;24175;-47
2023/04/03 19:14:15;;;;;;;4.90;3.40;;;22.30;52.90;;;;;;222517;1262;24193;-47
2023/04/03 19:19:21;;;;;;;3.80;2.50;;;22.30;52.60;;;;;;222369;1261;24200;-46
2023/04/03 19:24:28;;;;;;;3.70;2.60;;;22.30;52.70;;;;;;222527;1254;25337;-49
2023/04/03 19:29:35;;;;;;;5.40;2.70;;;22.20;52.40;;;;;;222252;1263;23906;-47
2023/04/03 19:34:42;;;;;;;3.90;2.80;;;22.10;52.60;;;;;;222419;1261;22608;-46
2023/04/03 19:39:47;;;;;;;6.30;2.90;;;22.00;52.80;;;;;;222380;1265;24312;-48
2023/04/03 19:44:54;;;;;;;4.30;2.80;;;22.00;52.50;;;;;;222323;1256;24235;-47
2023/04/03 19:50:00;;;;;;;13.30;4.20;;;22.00;52.50;;;;;;222312;1262;23698;-45
2023/04/03 19:55:07;;;;;;;7.20;3.30;;;22.10;53.40;;;;;;222368;1262;24188;-49
2023/04/03 20:00:18;;;;;;;6.90;3.40;;;22.10;52.80;;;;;;222482;1255;24189;-47
2023/04/03 20:05:28;;;;;;;9.50;3.10;;;22.00;52.80;;;;;;221956;1253;24189;-44
2023/04/03 20:10:38;;;;;;;6.10;3.00;;;21.90;52.90;;;;;;222350;1259;25338;-46
2023/04/03 20:15:46;;;;;;;8.70;3.20;;;21.80;53.10;;;;;;222280;1269;22516;-48
2023/04/03 20:21:00;;;;;;;4.40;3.00;;;21.80;53.10;;;;;;222315;1261;24302;-47
2023/04/03 20:26:08;;;;;;;5.60;3.40;;;21.70;53.20;;;;;;222331;1260;24244;-46
2023/04/03 20:31:21;;;;;;;4.90;2.70;;;21.80;53.10;;;;;;222238;1263;24220;-46
2023/04/03 20:36:29;;;;;;;5.10;3.10;;;21.80;53.10;;;;;;222259;1254;22620;-47
2023/04/03 20:41:36;;;;;;;6.50;3.00;;;21.70;52.70;;;;;;222218;1265;22508;-48
2023/04/03 20:46:42;;;;;;;4.30;3.40;;;21.70;53.40;;;;;;222234;1264;25400;-46
2023/04/03 20:51:52;;;;;;;5.20;3.10;;;21.60;53.30;;;;;;222303;1262;22504;-45
2023/04/03 20:56:56;;;;;;;5.50;3.00;;;22.00;55.90;;;;;;222409;1265;23148;-47
2023/04/03 21:02:01;;;;;;;5.90;3.30;;;22.50;55.50;;;;;;222420;1262;22513;-49
2023/04/03 21:07:43;;;;;;;4.50;2.80;;;22.70;54.70;;;;;;222333;1262;22636;-48
2023/04/03 21:13:25;;;;;;;7.70;3.50;;;22.80;54.70;;;;;;222433;1256;24054;-53
2023/04/03 21:18:29;;;;;;;;;;;22.90;54.80;;;;;;222452;1262;22510;-48
2023/04/03 21:23:33;;;;;;;5.90;3.50;;;22.90;54.60;;;;;;222188;1263;25213;-53
2023/04/03 21:28:37;;;;;;;5.10;3.10;;;22.90;54.70;;;;;;222411;1262;24190;-42
2023/04/03 21:33:42;;;;;;;4.80;3.00;;;23.10;54.70;;;;;;222523;1263;22976;-53
2023/04/03 21:38:47;;;;;;;9.30;2.70;;;23.20;55.00;;;;;;222475;1264;25275;-50
2023/04/03 21:43:51;;;;;;;7.30;2.90;;;23.20;54.80;;;;;;222184;1265;26499;-48
2023/04/03 21:48:55;;;;;;;6.30;3.20;;;23.20;54.20;;;;;;222544;1265;25466;-46
2023/04/03 21:53:59;;;;;;;6.90;3.10;;;23.30;53.80;;;;;;222404;1265;22641;-47
2023/04/03 21:59:03;;;;;;;7.60;3.50;;;23.30;53.80;;;;;;222334;1261;22513;-47
2023/04/03 22:04:08;;;;;;;6.10;3.10;;;23.20;53.80;;;;;;222272;1263;22906;-47
2023/04/03 22:09:13;;;;;;;8.00;3.40;;;23.00;54.20;;;;;;222409;1254;25255;-48
2023/04/03 22:14:17;;;;;;;8.40;3.20;;;22.80;54.60;;;;;;222463;1263;25312;-47
2023/04/03 22:19:22;;;;;;;3.40;2.70;;;22.60;54.90;;;;;;222500;1265;22535;-45
2023/04/03 22:24:27;;;;;;;4.60;3.10;;;22.60;55.50;;;;;;222132;1265;22514;-53
2023/04/03 22:29:31;;;;;;;8.00;2.90;;;22.60;55.30;;;;;;222340;1265;22712;-49
2023/04/03 22:34:38;;;;;;;4.30;3.10;;;22.50;55.00;;;;;;222440;1262;25310;-45
2023/04/03 22:39:42;;;;;;;6.10;2.50;;;22.50;55.00;;;;;;222602;1269;22584;-48
2023/04/03 22:44:46;;;;;;;4.70;3.20;;;22.50;54.70;;;;;;222133;1263;25339;-46
2023/04/03 22:49:50;;;;;;;4.80;2.40;;;22.50;54.40;;;;;;223904;1269;26663;-48
2023/04/03 22:54:54;;;;;;;4.80;3.10;;;22.40;54.40;;;;;;222819;1255;22524;-47
2023/04/03 23:00:02;;;;;;;4.40;2.60;;;22.30;54.40;;;;;;222385;1255;25262;-49
2023/04/03 23:05:07;;;;;;;3.40;2.70;;;22.20;54.80;;;;;;222253;1269;22902;-47
2023/04/03 23:10:11;;;;;;;5.10;3.70;;;22.10;54.80;;;;;;222436;1264;25284;-48
2023/04/03 23:15:18;;;;;;;4.20;3.80;;;22.10;54.80;;;;;;222483;1269;22781;-45
2023/04/03 23:20:22;;;;;;;7.00;2.80;;;22.00;54.80;;;;;;222515;1266;22521;-51
2023/04/03 23:25:26;;;;;;;5.20;2.60;;;22.00;55.10;;;;;;222472;1263;22531;-47
2023/04/03 23:30:31;;;;;;;4.70;3.60;;;22.00;55.00;;;;;;222032;1264;22627;-47
2023/04/03 23:35:47;;;;;;;3.30;2.50;;;21.90;55.20;;;;;;230083;1266;22297;-49
2023/04/03 23:40:51;;;;;;;3.60;2.80;;;21.90;54.80;;;;;;225865;1264;22525;-48
2023/04/03 23:45:56;;;;;;;3.70;2.70;;;22.00;54.50;;;;;;222348;1254;24197;-49
2023/04/03 23:51:00;;;;;;;3.50;2.80;;;21.90;54.80;;;;;;222190;1254;22514;-50
2023/04/03 23:56:10;;;;;;;3.30;2.50;;;22.20;54.80;;;;;;222177;1255;22522;-44
